Time;durP1;ratioP1;P1;durP2;ratioP2;P2;SDS_P1;SDS_P2;PMS_P1;PMS_P2;Temp;Humidity;BMP_temperature;BMP_pressure;BME280_temperature;BME280_humidity;BME280_pressure;Samples;Min_cycle;Max_cycle;Signal;HPM_P1;HPM_P2
2022/12/17 13:05:54;;;;;;;0.00;0.00;;;;;;;-3.09;100.00;102930.19;10480484;28;20045;-80
2022/12/17 13:11:26;;;;;;;0.00;0.00;;;;;;;-3.12;100.00;102931.47;10516339;28;20071;-82
2022/12/17 13:16:49;;;;;;;0.20;0.20;;;;;;;-3.09;100.00;102936.88;10463660;28;20048;-81
2022/12/17 13:21:51;;;;;;;0.17;0.17;;;;;;;-3.02;100.00;102934.34;10484343;28;20380;-81
2022/12/17 13:26:52;;;;;;;0.47;0.47;;;;;;;-3.04;100.00;102926.56;10484126;28;20045;-80
2022/12/17 13:32:05;;;;;;;2.55;0.93;;;;;;;-3.01;100.00;102931.06;10466976;28;20048;-81
2022/12/17 13:37:14;;;;;;;0.00;0.00;;;;;;;-3.10;100.00;102925.88;10473503;28;20106;-81
2022/12/17 13:42:33;;;;;;;0.43;0.43;;;;;;;-3.17;100.00;102922.50;10487155;28;20166;-80
2022/12/17 13:47:39;;;;;;;2.80;2.63;;;;;;;-3.24;100.00;102919.25;10482682;28;20048;-80
2022/12/17 13:52:40;;;;;;;0.00;0.00;;;;;;;-3.22;100.00;102917.81;10472387;28;20040;-80
2022/12/17 13:57:46;;;;;;;0.22;0.22;;;;;;;-3.11;100.00;102914.00;10491342;28;20040;-80
2022/12/17 14:02:49;;;;;;;0.10;0.10;;;;;;;-2.95;100.00;102925.81;10474995;28;20045;-81
2022/12/17 14:08:00;;;;;;;0.57;0.57;;;;;;;-3.07;100.00;102925.31;10506535;28;20076;-80
2022/12/17 14:13:12;;;;;;;1.17;1.02;;;;;;;-3.19;100.00;102928.25;10487478;28;20055;-80
2022/12/17 14:18:18;;;;;;;0.55;0.55;;;;;;;-3.24;100.00;102936.00;10481888;28;20044;-80
2022/12/17 14:23:27;;;;;;;0.45;0.45;;;;;;;-3.31;100.00;102944.50;10480897;28;20076;-81
2022/12/17 14:28:36;;;;;;;0.00;0.00;;;;;;;-3.19;100.00;102935.81;10497519;28;20406;-83
2022/12/17 14:33:43;;;;;;;1.00;0.95;;;;;;;-3.32;100.00;102942.72;10481581;28;20454;-82
2022/12/17 14:38:55;;;;;;;0.05;0.05;;;;;;;-3.29;100.00;102950.59;10470631;28;20127;-82
2022/12/17 14:44:01;;;;;;;0.80;0.57;;;;;;;-3.32;100.00;102947.75;10489878;28;20044;-82
2022/12/17 14:49:11;;;;;;;5.50;1.63;;;;;;;-3.31;100.00;102948.66;10479785;28;20388;-83
2022/12/17 14:54:13;;;;;;;0.00;0.00;;;;;;;-3.27;100.00;102946.66;10477363;28;20048;-82
2022/12/17 14:59:36;;;;;;;0.30;0.30;;;;;;;-3.23;100.00;102961.41;10457214;28;20196;-82
2022/12/17 15:04:38;;;;;;;2.35;2.15;;;;;;;-3.21;100.00;102974.19;10477694;28;20040;-83
2022/12/17 15:09:40;;;;;;;0.55;0.55;;;;;;;-3.21;100.00;102967.53;10478003;28;20141;-82
2022/12/17 15:14:45;;;;;;;1.00;1.00;;;;;;;-3.21;100.00;102970.03;10495602;28;20045;-82
2022/12/17 15:19:47;;;;;;;2.85;2.38;;;;;;;-3.24;100.00;102971.31;10492969;28;20044;-82
2022/12/17 15:24:56;;;;;;;5.03;2.85;;;;;;;-3.42;100.00;102976.03;10472969;28;20032;-82
2022/12/17 15:29:57;;;;;;;0.32;0.30;;;;;;;-3.39;100.00;102990.63;10474555;28;20051;-82
2022/12/17 15:34:59;;;;;;;0.00;0.00;;;;;;;-3.55;100.00;102993.88;10488738;28;20055;-82
2022/12/17 15:40:02;;;;;;;0.00;0.00;;;;;;;-3.57;100.00;102997.84;10485283;28;20055;-82
2022/12/17 15:45:04;;;;;;;0.15;0.15;;;;;;;-3.58;100.00;103003.59;10476343;28;20096;-82
2022/12/17 15:50:07;;;;;;;1.45;1.35;;;;;;;-3.82;100.00;103012.59;10459566;28;20044;-82
2022/12/17 15:55:08;;;;;;;0.10;0.10;;;;;;;-3.78;100.00;103018.00;10476581;28;20048;-81
2022/12/17 16:00:16;;;;;;;0.35;0.35;;;;;;;-3.97;100.00;103010.78;10462921;28;20049;-81
2022/12/17 16:05:19;;;;;;;0.20;0.20;;;;;;;-3.93;100.00;103002.88;10474064;28;20706;-82
2022/12/17 16:10:21;;;;;;;0.00;0.00;;;;;;;-3.87;100.00;103016.19;10491626;28;20036;-82
2022/12/17 16:15:23;;;;;;;0.15;0.15;;;;;;;-3.96;100.00;103027.69;10475004;28;20045;-82
2022/12/17 16:20:25;;;;;;;2.28;2.08;;;;;;;-3.92;100.00;103042.44;10469160;28;20484;-82
2022/12/17 16:25:26;;;;;;;0.20;0.20;;;;;;;-3.96;100.00;103042.78;10499382;28;20106;-82
2022/12/17 16:30:28;;;;;;;1.02;1.00;;;;;;;-3.93;100.00;103047.28;10480274;28;20041;-82
2022/12/17 16:35:30;;;;;;;0.00;0.00;;;;;;;-4.20;100.00;103056.75;10475463;28;20096;-82
2022/12/17 16:40:31;;;;;;;1.75;1.65;;;;;;;-4.14;100.00;103066.69;10477790;28;20502;-82
2022/12/17 16:45:33;;;;;;;1.08;1.08;;;;;;;-4.18;100.00;103065.41;10493705;28;20123;-83
2022/12/17 16:50:38;;;;;;;0.80;0.80;;;;;;;-4.16;100.00;103053.91;10476541;28;20082;-81
2022/12/17 16:55:41;;;;;;;1.20;1.13;;;;;;;-4.30;100.00;103054.75;10491681;28;20436;-82
2022/12/17 17:00:45;;;;;;;1.45;1.35;;;;;;;-4.39;100.00;103062.81;10482908;28;20048;-81
2022/12/17 17:05:46;;;;;;;0.65;0.65;;;;;;;-4.37;100.00;103066.44;10483560;28;20044;-79
2022/12/17 17:10:48;;;;;;;0.22;0.22;;;;;;;-4.33;100.00;103064.47;10486450;28;20040;-79
2022/12/17 17:15:50;;;;;;;0.70;0.70;;;;;;;-4.43;100.00;103073.25;10486336;28;20385;-79
2022/12/17 17:20:54;;;;;;;4.32;1.90;;;;;;;-4.47;100.00;103084.56;10503409;28;20525;-79
2022/12/17 17:25:56;;;;;;;4.50;1.10;;;;;;;-4.62;100.00;103076.03;10471638;28;20071;-79
2022/12/17 17:31:01;;;;;;;0.00;0.00;;;;;;;-4.59;100.00;103086.47;10484987;28;20044;-79
2022/12/17 17:36:09;;;;;;;0.00;0.00;;;;;;;-4.59;100.00;103093.09;10478010;28;20509;-79
2022/12/17 17:41:12;;;;;;;0.50;0.50;;;;;;;-4.66;100.00;103088.94;10484275;28;20103;-79
2022/12/17 18:47:24;;;;;;;0.32;0.32;;;;;;;-5.04;100.00;103150.50;10467490;28;20032;-79
2022/12/17 18:52:44;;;;;;;1.23;1.13;;;;;;;-5.02;100.00;103151.56;10482022;28;20136;-79
2022/12/17 18:58:37;;;;;;;0.10;0.10;;;;;;;-5.27;100.00;103156.03;10456438;28;20118;-78
2022/12/17 19:03:40;;;;;;;0.30;0.30;;;;;;;-5.42;100.00;103153.41;10477313;28;20056;-79
2022/12/17 19:08:44;;;;;;;2.67;2.47;;;;;;;-5.39;100.00;103162.94;10477657;28;20071;-79
2022/12/17 19:13:49;;;;;;;0.10;0.10;;;;;;;-5.56;100.00;103155.78;10496521;28;20046;-80
2022/12/17 19:19:02;;;;;;;0.45;0.45;;;;;;;-5.70;100.00;103159.03;10484992;28;20076;-78
2022/12/17 19:24:07;;;;;;;0.52;0.52;;;;;;;-5.60;100.00;103154.50;10478124;28;20032;-78
2022/12/17 19:29:14;;;;;;;0.32;0.30;;;;;;;-5.53;100.00;103162.78;10498018;28;20074;-78
2022/12/17 19:34:19;;;;;;;0.20;0.20;;;;;;;-5.49;100.00;103168.41;10494799;28;20068;-81
2022/12/17 19:39:20;;;;;;;0.45;0.45;;;;;;;-5.44;100.00;103182.44;10476981;28;20407;-81
2022/12/17 19:44:22;;;;;;;1.02;0.95;;;;;;;-5.51;100.00;103179.88;10476978;28;20097;-82
2022/12/17 19:49:24;;;;;;;0.17;0.17;;;;;;;-5.61;100.00;103182.81;10477162;28;20510;-81
2022/12/17 19:54:25;;;;;;;0.10;0.10;;;;;;;-5.53;100.00;103190.44;10476878;28;20044;-82
2022/12/17 19:59:27;;;;;;;0.28;0.28;;;;;;;-5.47;100.00;103189.56;10493492;28;20043;-82
2022/12/17 20:04:29;;;;;;;3.22;3.03;;;;;;;-5.48;100.00;103185.28;10476435;28;20496;-81
2022/12/17 20:09:31;;;;;;;0.20;0.20;;;;;;;-5.43;100.00;103204.34;10494486;28;20118;-81
2022/12/17 20:14:34;;;;;;;0.15;0.15;;;;;;;-5.36;100.00;103195.06;10459733;28;20090;-81
2022/12/17 20:19:36;;;;;;;0.10;0.10;;;;;;;-5.37;100.00;103180.72;10476462;28;20049;-81
2022/12/17 20:24:38;;;;;;;0.10;0.10;;;;;;;-5.48;100.00;103190.31;10475540;28;20094;-81
2022/12/17 20:29:39;;;;;;;0.13;0.13;;;;;;;-5.50;100.00;103189.22;10469458;28;20053;-81
2022/12/17 20:35:42;;;;;;;0.93;0.93;;;;;;;-5.52;100.00;103195.63;10481628;28;20079;-79
2022/12/17 20:40:44;;;;;;;1.90;1.65;;;;;;;-5.55;100.00;103191.84;10486853;28;20049;-79
2022/12/17 20:45:53;;;;;;;0.00;0.00;;;;;;;-5.59;100.00;103193.97;10487378;28;20052;-79
2022/12/17 20:50:55;;;;;;;0.10;0.10;;;;;;;-5.69;100.00;103192.56;10512088;28;20051;-79
2022/12/17 20:56:09;;;;;;;0.47;0.47;;;;;;;-5.70;100.00;103186.66;10493901;28;20290;-79
2022/12/17 21:01:19;;;;;;;5.15;3.53;;;;;;;-5.71;100.00;103194.88;10493617;28;20049;-79
2022/12/17 21:06:57;;;;;;;1.30;1.20;;;;;;;-5.77;100.00;103192.47;10492023;28;20460;-79
2022/12/17 21:11:59;;;;;;;0.10;0.10;;;;;;;-5.80;100.00;103196.22;10460968;28;20088;-79
2022/12/17 21:17:03;;;;;;;0.43;0.43;;;;;;;-5.85;100.00;103209.78;10486481;28;20044;-80
2022/12/17 21:22:06;;;;;;;0.10;0.10;;;;;;;-5.86;100.00;103193.84;10508488;28;20048;-80
2022/12/17 21:27:13;;;;;;;1.15;1.15;;;;;;;-5.94;100.00;103204.50;10485672;28;20053;-80
2022/12/17 21:32:15;;;;;;;1.00;1.00;;;;;;;-5.94;100.00;103199.47;10485478;28;20442;-79
2022/12/17 21:37:17;;;;;;;0.10;0.10;;;;;;;-6.04;100.00;103204.03;10502904;28;20049;-79
2022/12/17 21:47:41;;;;;;;0.00;0.00;;;;;;;-6.28;100.00;103211.09;10486242;28;20115;-78
2022/12/17 21:52:43;;;;;;;0.47;0.47;;;;;;;-6.36;100.00;103216.69;10507518;28;20036;-78
2022/12/17 21:57:44;;;;;;;4.35;4.05;;;;;;;-6.51;100.00;103220.59;10506745;28;20461;-79
2022/12/17 22:02:50;;;;;;;1.73;1.67;;;;;;;-6.49;100.00;103218.31;10502091;28;20399;-79
2022/12/17 22:08:14;;;;;;;4.65;4.32;;;;;;;-6.59;100.00;103226.22;10470361;28;20060;-79
2022/12/17 22:18:39;;;;;;;0.30;0.30;;;;;;;-6.69;100.00;103234.09;10486522;28;20136;-78
2022/12/17 22:24:46;;;;;;;0.30;0.30;;;;;;;-6.78;100.00;103223.75;10496331;28;20449;-81
2022/12/17 22:35:34;;;;;;;0.40;0.40;;;;;;;-7.02;100.00;103219.78;10526032;28;20548;-81
2022/12/17 22:41:06;;;;;;;0.88;0.88;;;;;;;-7.01;100.00;103215.69;10491262;28;20098;-81
2022/12/17 22:46:28;;;;;;;2.47;2.08;;;;;;;-7.06;100.00;103215.09;10486580;28;20041;-81
2022/12/17 22:51:31;;;;;;;0.00;0.00;;;;;;;-7.20;100.00;103208.22;10504731;28;20076;-81
2022/12/17 22:56:39;;;;;;;2.05;1.95;;;;;;;-7.25;100.00;103216.72;10491898;28;20036;-82
2022/12/17 23:02:02;;;;;;;0.43;0.43;;;;;;;-7.33;100.00;103222.28;10484827;28;20487;-82
2022/12/17 23:07:04;;;;;;;0.30;0.30;;;;;;;-7.42;100.00;103221.97;10502082;28;20078;-82
2022/12/17 23:17:26;;;;;;;1.00;0.55;;;;;;;-7.73;100.00;103221.88;10511779;28;20109;-81
2022/12/17 23:22:28;;;;;;;0.22;0.22;;;;;;;-7.90;100.00;103214.56;10496677;28;20044;-81
2022/12/17 23:27:30;;;;;;;0.00;0.00;;;;;;;-7.96;100.00;103209.59;10496306;28;20053;-81
2022/12/17 23:32:31;;;;;;;0.10;0.10;;;;;;;-8.06;100.00;103204.94;10472232;28;20056;-81
2022/12/17 23:37:35;;;;;;;0.00;0.00;;;;;;;-8.17;100.00;103210.97;10524851;28;20135;-81
2022/12/17 23:42:40;;;;;;;1.08;1.02;;;;;;;-8.24;100.00;103202.41;10469809;28;20476;-81
2022/12/17 23:47:42;;;;;;;0.10;0.10;;;;;;;-8.13;100.00;103197.28;10478171;28;20048;-81
2022/12/17 23:52:43;;;;;;;0.10;0.10;;;;;;;-8.21;100.00;103200.31;10464098;28;20053;-81
2022/12/17 23:57:45;;;;;;;0.75;0.75;;;;;;;-8.63;100.00;103203.03;10494554;28;20041;-81
